sensor_id;sensor_type;location;lat;lon;timestamp;pressure;altitude;pressure_sealevel;temperature;humidity
42591;BME280;28218;53.342;-6.216;2022-09-14T00:01:37;100662.16;;;15.29;100.00
42591;BME280;28218;53.342;-6.216;2022-09-14T00:04:09;100673.63;;;15.29;100.00
42591;BME280;28218;53.342;-6.216;2022-09-14T00:06:37;100669.28;;;15.28;100.00
42591;BME280;28218;53.342;-6.216;2022-09-14T00:09:06;100674.81;;;15.27;100.00
42591;BME280;28218;53.342;-6.216;2022-09-14T00:11:37;100673.19;;;15.26;100.00
42591;BME280;28218;53.342;-6.216;2022-09-14T00:14:07;100672.16;;;15.27;100.00
42591;BME280;28218;53.342;-6.216;2022-09-14T00:16:38;100676.44;;;15.28;100.00
42591;BME280;28218;53.342;-6.216;2022-09-14T00:19:12;100674.81;;;15.27;100.00
42591;BME280;28218;53.342;-6.216;2022-09-14T00:21:42;100673.41;;;15.24;100.00
42591;BME280;28218;53.342;-6.216;2022-09-14T00:24:11;100679.09;;;15.21;100.00
42591;BME280;28218;53.342;-6.216;2022-09-14T00:26:39;100684.59;;;15.20;100.00
42591;BME280;28218;53.342;-6.216;2022-09-14T00:29:07;100674.16;;;15.18;100.00
42591;BME280;28218;53.342;-6.216;2022-09-14T00:31:38;100676.22;;;15.16;100.00
42591;BME280;28218;53.342;-6.216;2022-09-14T00:34:08;100674.75;;;15.14;100.00
42591;BME280;28218;53.342;-6.216;2022-09-14T00:36:39;100673.34;;;15.11;100.00
42591;BME280;28218;53.342;-6.216;2022-09-14T00:39:09;100670.47;;;15.06;100.00
42591;BME280;28218;53.342;-6.216;2022-09-14T00:41:39;100667.19;;;15.04;100.00
42591;BME280;28218;53.342;-6.216;2022-09-14T00:47:11;100665.53;;;14.96;100.00
42591;BME280;28218;53.342;-6.216;2022-09-14T00:49:40;100668.78;;;14.92;100.00
42591;BME280;28218;53.342;-6.216;2022-09-14T00:52:12;100674.09;;;14.92;100.00
42591;BME280;28218;53.342;-6.216;2022-09-14T00:54:44;100673.25;;;14.91;100.00
42591;BME280;28218;53.342;-6.216;2022-09-14T00:57:14;100675.28;;;14.89;100.00
42591;BME280;28218;53.342;-6.216;2022-09-14T00:59:43;100678.31;;;14.86;100.00
42591;BME280;28218;53.342;-6.216;2022-09-14T01:02:14;100676.91;;;14.83;100.00
42591;BME280;28218;53.342;-6.216;2022-09-14T01:04:45;100672.41;;;14.84;100.00
42591;BME280;28218;53.342;-6.216;2022-09-14T01:07:23;100676.47;;;14.80;100.00
42591;BME280;28218;53.342;-6.216;2022-09-14T01:10:00;100670.13;;;14.74;100.00
42591;BME280;28218;53.342;-6.216;2022-09-14T01:12:39;100662.75;;;14.70;100.00
42591;BME280;28218;53.342;-6.216;2022-09-14T01:15:16;100669.47;;;14.66;100.00
42591;BME280;28218;53.342;-6.216;2022-09-14T01:18:01;100671.50;;;14.64;100.00
42591;BME280;28218;53.342;-6.216;2022-09-14T01:20:36;100673.94;;;14.65;100.00
42591;BME280;28218;53.342;-6.216;2022-09-14T01:23:12;100678.81;;;14.62;100.00
42591;BME280;28218;53.342;-6.216;2022-09-14T01:25:59;100675.56;;;14.60;100.00
42591;BME280;28218;53.342;-6.216;2022-09-14T01:28:34;100680.22;;;14.57;100.00
42591;BME280;28218;53.342;-6.216;2022-09-14T01:31:19;100673.88;;;14.52;100.00
42591;BME280;28218;53.342;-6.216;2022-09-14T01:33:53;100680.41;;;14.49;100.00
42591;BME280;28218;53.342;-6.216;2022-09-14T01:36:23;100682.75;;;14.44;100.00
42591;BME280;28218;53.342;-6.216;2022-09-14T01:38:54;100684.34;;;14.39;100.00
42591;BME280;28218;53.342;-6.216;2022-09-14T01:41:25;100684.34;;;14.39;100.00
42591;BME280;28218;53.342;-6.216;2022-09-14T01:44:00;100676.16;;;14.33;100.00
42591;BME280;28218;53.342;-6.216;2022-09-14T01:46:35;100684.69;;;14.29;100.00
42591;BME280;28218;53.342;-6.216;2022-09-14T01:49:10;100681.81;;;14.24;100.00
42591;BME280;28218;53.342;-6.216;2022-09-14T01:51:45;100680.53;;;14.20;100.00
42591;BME280;28218;53.342;-6.216;2022-09-14T01:54:17;100690.91;;;14.15;100.00
42591;BME280;28218;53.342;-6.216;2022-09-14T01:56:52;100690.66;;;14.10;100.00
42591;BME280;28218;53.342;-6.216;2022-09-14T01:59:26;100689.41;;;14.05;100.00
42591;BME280;28218;53.342;-6.216;2022-09-14T02:02:01;100693.44;;;14.01;100.00
42591;BME280;28218;53.342;-6.216;2022-09-14T02:04:35;100699.16;;;13.98;100.00
42591;BME280;28218;53.342;-6.216;2022-09-14T02:07:08;100709.91;;;13.97;100.00
42591;BME280;28218;53.342;-6.216;2022-09-14T02:09:37;100704.19;;;13.93;100.00
42591;BME280;28218;53.342;-6.216;2022-09-14T02:12:06;100713.13;;;13.92;100.00
42591;BME280;28218;53.342;-6.216;2022-09-14T02:14:36;100712.50;;;13.90;100.00
42591;BME280;28218;53.342;-6.216;2022-09-14T02:17:04;100721.66;;;13.88;100.00
42591;BME280;28218;53.342;-6.216;2022-09-14T02:19:39;100720.22;;;13.85;100.00
42591;BME280;28218;53.342;-6.216;2022-09-14T02:22:08;100717.94;;;13.82;100.00
42591;BME280;28218;53.342;-6.216;2022-09-14T02:24:36;100718.31;;;13.79;100.00
42591;BME280;28218;53.342;-6.216;2022-09-14T02:27:05;100716.66;;;13.78;100.00
42591;BME280;28218;53.342;-6.216;2022-09-14T02:29:35;100722.53;;;13.73;100.00
42591;BME280;28218;53.342;-6.216;2022-09-14T02:32:11;100722.53;;;13.73;100.00
42591;BME280;28218;53.342;-6.216;2022-09-14T02:34:52;100720.88;;;13.72;100.00
42591;BME280;28218;53.342;-6.216;2022-09-14T02:37:28;100729.03;;;13.71;100.00
42591;BME280;28218;53.342;-6.216;2022-09-14T02:40:04;100723.75;;;13.71;100.00
42591;BME280;28218;53.342;-6.216;2022-09-14T02:42:42;100719.47;;;13.70;100.00
42591;BME280;28218;53.342;-6.216;2022-09-14T02:45:20;100709.84;;;13.69;100.00
42591;BME280;28218;53.342;-6.216;2022-09-14T02:47:54;100721.84;;;13.65;100.00
42591;BME280;28218;53.342;-6.216;2022-09-14T02:50:28;100706.34;;;13.62;100.00
42591;BME280;28218;53.342;-6.216;2022-09-14T02:53:07;100716.28;;;13.60;100.00
42591;BME280;28218;53.342;-6.216;2022-09-14T02:55:40;100723.78;;;13.56;100.00
42591;BME280;28218;53.342;-6.216;2022-09-14T02:58:11;100722.31;;;13.53;100.00
42591;BME280;28218;53.342;-6.216;2022-09-14T03:00:43;100726.00;;;13.52;100.00
42591;BME280;28218;53.342;-6.216;2022-09-14T03:03:18;100720.50;;;13.54;100.00
42591;BME280;28218;53.342;-6.216;2022-09-14T03:05:47;100721.88;;;13.50;100.00
42591;BME280;28218;53.342;-6.216;2022-09-14T03:08:15;100718.41;;;13.49;100.00
42591;BME280;28218;53.342;-6.216;2022-09-14T03:10:43;100717.78;;;13.47;100.00
42591;BME280;28218;53.342;-6.216;2022-09-14T03:13:12;100720.63;;;13.46;100.00
42591;BME280;28218;53.342;-6.216;2022-09-14T03:15:41;100724.47;;;13.43;100.00
42591;BME280;28218;53.342;-6.216;2022-09-14T03:18:09;100726.84;;;13.38;100.00
42591;BME280;28218;53.342;-6.216;2022-09-14T03:20:40;100725.22;;;13.37;100.00
42591;BME280;28218;53.342;-6.216;2022-09-14T03:23:09;100730.50;;;13.37;100.00
42591;BME280;28218;53.342;-6.216;2022-09-14T03:25:38;100725.38;;;13.36;100.00
42591;BME280;28218;53.342;-6.216;2022-09-14T03:28:08;100723.94;;;13.33;100.00
42591;BME280;28218;53.342;-6.216;2022-09-14T03:30:36;100728.59;;;13.31;100.00
42591;BME280;28218;53.342;-6.216;2022-09-14T03:33:06;100725.31;;;13.29;100.00
42591;BME280;28218;53.342;-6.216;2022-09-14T03:35:34;100723.03;;;13.26;100.00
42591;BME280;28218;53.342;-6.216;2022-09-14T03:38:02;100722.41;;;13.24;100.00
42591;BME280;28218;53.342;-6.216;2022-09-14T03:40:30;100723.03;;;13.26;100.00
42591;BME280;28218;53.342;-6.216;2022-09-14T03:42:59;100732.78;;;13.25;100.00
42591;BME280;28218;53.342;-6.216;2022-09-14T03:45:27;100724.69;;;13.27;100.00
42591;BME280;28218;53.342;-6.216;2022-09-14T03:47:55;100715.34;;;13.31;100.00
42591;BME280;28218;53.342;-6.216;2022-09-14T03:50:25;100715.81;;;13.35;100.00
42591;BME280;28218;53.342;-6.216;2022-09-14T03:52:53;100717.06;;;13.39;100.00
42591;BME280;28218;53.342;-6.216;2022-09-14T03:55:22;100715.50;;;13.44;100.00
42591;BME280;28218;53.342;-6.216;2022-09-14T03:57:53;100714.94;;;13.49;100.00
42591;BME280;28218;53.342;-6.216;2022-09-14T04:00:22;100709.47;;;13.50;100.00
42591;BME280;28218;53.342;-6.216;2022-09-14T04:02:50;100723.97;;;13.54;100.00
42591;BME280;28218;53.342;-6.216;2022-09-14T04:05:19;100708.16;;;13.61;100.00
42591;BME280;28218;53.342;-6.216;2022-09-14T04:07:49;100706.94;;;13.64;100.00
42591;BME280;28218;53.342;-6.216;2022-09-14T04:10:17;100710.25;;;13.66;100.00
42591;BME280;28218;53.342;-6.216;2022-09-14T04:12:45;100707.84;;;13.71;100.00
42591;BME280;28218;53.342;-6.216;2022-09-14T04:15:14;100705.81;;;13.73;100.00
42591;BME280;28218;53.342;-6.216;2022-09-14T04:17:42;100701.78;;;13.77;100.00
42591;BME280;28218;53.342;-6.216;2022-09-14T04:20:10;100699.13;;;13.77;100.00
42591;BME280;28218;53.342;-6.216;2022-09-14T04:22:38;100694.50;;;13.79;100.00
42591;BME280;28218;53.342;-6.216;2022-09-14T04:25:08;100699.38;;;13.82;100.00
42591;BME280;28218;53.342;-6.216;2022-09-14T04:27:36;100695.94;;;13.81;100.00
42591;BME280;28218;53.342;-6.216;2022-09-14T04:30:05;100692.09;;;13.84;100.00
42591;BME280;28218;53.342;-6.216;2022-09-14T04:32:34;100689.44;;;13.84;100.00
42591;BME280;28218;53.342;-6.216;2022-09-14T04:35:02;100693.53;;;13.87;100.00
42591;BME280;28218;53.342;-6.216;2022-09-14T04:37:31;100686.03;;;13.90;100.00
42591;BME280;28218;53.342;-6.216;2022-09-14T04:39:59;100685.41;;;13.88;100.00
42591;BME280;28218;53.342;-6.216;2022-09-14T04:42:29;100682.94;;;13.87;100.00
42591;BME280;28218;53.342;-6.216;2022-09-14T04:44:57;100684.41;;;13.89;100.00
42591;BME280;28218;53.342;-6.216;2022-09-14T04:47:27;100682.38;;;13.91;100.00
42591;BME280;28218;53.342;-6.216;2022-09-14T04:49:56;100678.69;;;13.92;100.00
42591;BME280;28218;53.342;-6.216;2022-09-14T04:52:24;100676.25;;;13.91;100.00
42591;BME280;28218;53.342;-6.216;2022-09-14T04:54:52;100671.75;;;13.91;100.00
42591;BME280;28218;53.342;-6.216;2022-09-14T04:57:20;100668.09;;;13.92;100.00
42591;BME280;28218;53.342;-6.216;2022-09-14T04:59:50;100667.28;;;13.92;100.00
42591;BME280;28218;53.342;-6.216;2022-09-14T05:02:18;100669.75;;;13.93;100.00
42591;BME280;28218;53.342;-6.216;2022-09-14T05:04:46;100673.41;;;13.92;100.00
42591;BME280;28218;53.342;-6.216;2022-09-14T05:07:14;100671.59;;;13.93;100.00
42591;BME280;28218;53.342;-6.216;2022-09-14T05:09:43;100673.41;;;13.92;100.00
42591;BME280;28218;53.342;-6.216;2022-09-14T05:12:11;100668.94;;;13.93;100.00
42591;BME280;28218;53.342;-6.216;2022-09-14T05:14:39;100669.94;;;13.92;100.00
42591;BME280;28218;53.342;-6.216;2022-09-14T05:17:08;100669.75;;;13.93;100.00
42591;BME280;28218;53.342;-6.216;2022-09-14T05:19:36;100673.41;;;13.92;100.00
42591;BME280;28218;53.342;-6.216;2022-09-14T05:22:05;100662.44;;;13.95;100.00
42591;BME280;28218;53.342;-6.216;2022-09-14T05:24:33;100664.47;;;13.93;100.00
42591;BME280;28218;53.342;-6.216;2022-09-14T05:27:01;100668.94;;;13.93;100.00
42591;BME280;28218;53.342;-6.216;2022-09-14T05:29:29;100670.94;;;13.91;100.00
42591;BME280;28218;53.342;-6.216;2022-09-14T05:31:58;100673.41;;;13.92;100.00
42591;BME280;28218;53.342;-6.216;2022-09-14T05:34:27;100667.13;;;13.93;100.00
42591;BME280;28218;53.342;-6.216;2022-09-14T05:36:55;100676.50;;;13.96;100.00
42591;BME280;28218;53.342;-6.216;2022-09-14T05:39:24;100660.22;;;13.99;100.00
42591;BME280;28218;53.342;-6.216;2022-09-14T05:41:52;100665.72;;;13.97;100.00
42591;BME280;28218;53.342;-6.216;2022-09-14T05:44:20;100676.31;;;13.97;100.00
42591;BME280;28218;53.342;-6.216;2022-09-14T05:46:49;100663.69;;;13.99;100.00
42591;BME280;28218;53.342;-6.216;2022-09-14T05:49:17;100678.31;;;13.95;100.00
42591;BME280;28218;53.342;-6.216;2022-09-14T05:51:46;100672.41;;;13.93;100.00
42591;BME280;28218;53.342;-6.216;2022-09-14T05:54:14;100676.31;;;13.97;100.00
42591;BME280;28218;53.342;-6.216;2022-09-14T05:56:43;100674.50;;;13.98;100.00
42591;BME280;28218;53.342;-6.216;2022-09-14T05:59:11;100670.81;;;13.99;100.00
42591;BME280;28218;53.342;-6.216;2022-09-14T06:01:39;100676.13;;;13.99;100.00
42591;BME280;28218;53.342;-6.216;2022-09-14T06:04:09;100674.28;;;13.99;100.00
42591;BME280;28218;53.342;-6.216;2022-09-14T06:06:38;100670.63;;;14.00;100.00
42591;BME280;28218;53.342;-6.216;2022-09-14T06:09:07;100676.38;;;14.04;100.00
42591;BME280;28218;53.342;-6.216;2022-09-14T06:11:35;100681.47;;;14.05;100.00
42591;BME280;28218;53.342;-6.216;2022-09-14T06:14:04;100675.53;;;14.03;100.00
42591;BME280;28218;53.342;-6.216;2022-09-14T06:16:33;100674.31;;;14.06;100.00
42591;BME280;28218;53.342;-6.216;2022-09-14T06:19:02;100677.19;;;14.04;100.00
42591;BME280;28218;53.342;-6.216;2022-09-14T06:21:32;100685.56;;;14.08;100.00
42591;BME280;28218;53.342;-6.216;2022-09-14T06:24:01;100682.91;;;14.08;100.00
42591;BME280;28218;53.342;-6.216;2022-09-14T06:26:31;100684.75;;;14.07;100.00
42591;BME280;28218;53.342;-6.216;2022-09-14T06:29:00;100686.38;;;14.09;100.00
42591;BME280;28218;53.342;-6.216;2022-09-14T06:31:28;100684.94;;;14.06;100.00
42591;BME280;28218;53.342;-6.216;2022-09-14T06:33:56;100694.34;;;14.09;100.00
42591;BME280;28218;53.342;-6.216;2022-09-14T06:36:26;100698.41;;;14.11;100.00
42591;BME280;28218;53.342;-6.216;2022-09-14T06:38:54;100687.00;;;14.11;100.00
42591;BME280;28218;53.342;-6.216;2022-09-14T06:41:25;100690.28;;;14.13;100.00
42591;BME280;28218;53.342;-6.216;2022-09-14T06:43:58;100690.66;;;14.10;100.00
42591;BME280;28218;53.342;-6.216;2022-09-14T06:46:29;100691.03;;;14.06;100.00
42591;BME280;28218;53.342;-6.216;2022-09-14T06:49:00;100696.34;;;14.06;100.00
42591;BME280;28218;53.342;-6.216;2022-09-14T06:51:31;100689.84;;;14.09;100.00
42591;BME280;28218;53.342;-6.216;2022-09-14T06:53:59;100687.81;;;14.11;100.00
42591;BME280;28218;53.342;-6.216;2022-09-14T06:56:30;100685.38;;;14.10;100.00
42591;BME280;28218;53.342;-6.216;2022-09-14T06:59:00;100683.38;;;14.12;100.00
42591;BME280;28218;53.342;-6.216;2022-09-14T07:01:29;100700.91;;;14.13;100.00
42591;BME280;28218;53.342;-6.216;2022-09-14T07:03:58;100696.63;;;14.12;100.00
42591;BME280;28218;53.342;-6.216;2022-09-14T07:06:28;100688.84;;;14.10;100.00
42591;BME280;28218;53.342;-6.216;2022-09-14T07:08:57;100694.94;;;14.11;100.00
42591;BME280;28218;53.342;-6.216;2022-09-14T07:11:26;100700.44;;;14.09;100.00
42591;BME280;28218;53.342;-6.216;2022-09-14T07:13:55;100696.97;;;14.09;100.00
42591;BME280;28218;53.342;-6.216;2022-09-14T07:16:26;100695.97;;;14.10;100.00
42591;BME280;28218;53.342;-6.216;2022-09-14T07:18:55;100704.94;;;14.09;100.00
42591;BME280;28218;53.342;-6.216;2022-09-14T07:21:24;100706.38;;;14.11;100.00
42591;BME280;28218;53.342;-6.216;2022-09-14T07:23:52;100699.25;;;14.12;100.00
42591;BME280;28218;53.342;-6.216;2022-09-14T07:26:23;100704.00;;;14.16;100.00
42591;BME280;28218;53.342;-6.216;2022-09-14T07:28:53;100706.22;;;14.19;100.00
42591;BME280;28218;53.342;-6.216;2022-09-14T07:31:28;100698.72;;;14.23;100.00
42591;BME280;28218;53.342;-6.216;2022-09-14T07:33:59;100694.03;;;14.25;100.00
42591;BME280;28218;53.342;-6.216;2022-09-14T07:36:28;100703.25;;;14.29;100.00
42591;BME280;28218;53.342;-6.216;2022-09-14T07:39:01;100699.00;;;14.35;100.00
42591;BME280;28218;53.342;-6.216;2022-09-14T07:41:31;100699.06;;;14.41;100.00
42591;BME280;28218;53.342;-6.216;2022-09-14T07:44:02;100700.25;;;14.39;100.00
42591;BME280;28218;53.342;-6.216;2022-09-14T07:46:36;100693.31;;;14.38;100.00
42591;BME280;28218;53.342;-6.216;2022-09-14T07:49:06;100698.25;;;14.41;100.00
42591;BME280;28218;53.342;-6.216;2022-09-14T07:51:35;100709.03;;;14.39;100.00
42591;BME280;28218;53.342;-6.216;2022-09-14T07:54:05;100702.91;;;14.39;100.00
42591;BME280;28218;53.342;-6.216;2022-09-14T07:56:33;100710.84;;;14.39;100.00
42591;BME280;28218;53.342;-6.216;2022-09-14T07:59:03;100716.00;;;14.40;100.00
42591;BME280;28218;53.342;-6.216;2022-09-14T08:01:52;100710.69;;;14.40;100.00
42591;BME280;28218;53.342;-6.216;2022-09-14T08:04:21;100722.50;;;14.44;100.00
42591;BME280;28218;53.342;-6.216;2022-09-14T08:06:49;100722.50;;;14.44;100.00
42591;BME280;28218;53.342;-6.216;2022-09-14T08:09:17;100720.28;;;14.41;100.00
42591;BME280;28218;53.342;-6.216;2022-09-14T08:11:46;100718.22;;;14.43;100.00
42591;BME280;28218;53.342;-6.216;2022-09-14T08:14:14;100714.19;;;14.47;100.00
42591;BME280;28218;53.342;-6.216;2022-09-14T08:16:42;100716.22;;;14.45;100.00
42591;BME280;28218;53.342;-6.216;2022-09-14T08:19:14;100713.38;;;14.47;100.00
42591;BME280;28218;53.342;-6.216;2022-09-14T08:21:44;100720.72;;;14.45;100.00
42591;BME280;28218;53.342;-6.216;2022-09-14T08:24:16;100711.31;;;14.42;100.00
42591;BME280;28218;53.342;-6.216;2022-09-14T08:26:44;100708.84;;;14.41;100.00
42591;BME280;28218;53.342;-6.216;2022-09-14T08:29:13;100718.50;;;14.48;100.00
42591;BME280;28218;53.342;-6.216;2022-09-14T08:31:42;100701.19;;;14.52;100.00
42591;BME280;28218;53.342;-6.216;2022-09-14T08:34:13;100701.44;;;14.57;100.00
42591;BME280;28218;53.342;-6.216;2022-09-14T08:36:43;100692.72;;;14.64;100.00
42591;BME280;28218;53.342;-6.216;2022-09-14T08:39:13;100688.63;;;14.68;100.00
42591;BME280;28218;53.342;-6.216;2022-09-14T08:41:48;100689.88;;;14.72;100.00
42591;BME280;28218;53.342;-6.216;2022-09-14T08:44:20;100685.41;;;14.72;100.00
42591;BME280;28218;53.342;-6.216;2022-09-14T08:46:54;100686.81;;;14.68;100.00
42591;BME280;28218;53.342;-6.216;2022-09-14T08:49:37;100689.06;;;14.71;100.00
42591;BME280;28218;53.342;-6.216;2022-09-14T08:52:11;100681.13;;;14.71;100.00
42591;BME280;28218;53.342;-6.216;2022-09-14T08:54:40;100680.50;;;14.69;100.00
42591;BME280;28218;53.342;-6.216;2022-09-14T08:57:13;100688.91;;;14.73;100.00
42591;BME280;28218;53.342;-6.216;2022-09-14T08:59:50;100687.47;;;14.77;100.00
42591;BME280;28218;53.342;-6.216;2022-09-14T09:02:32;100683.63;;;14.79;100.00
42591;BME280;28218;53.342;-6.216;2022-09-14T09:05:18;100681.41;;;14.90;100.00
42591;BME280;28218;53.342;-6.216;2022-09-14T09:07:55;100684.50;;;14.93;100.00
42591;BME280;28218;53.342;-6.216;2022-09-14T09:10:25;100685.31;;;15.00;100.00
42591;BME280;28218;53.342;-6.216;2022-09-14T09:12:56;100688.44;;;15.11;100.00
42591;BME280;28218;53.342;-6.216;2022-09-14T09:15:28;100697.03;;;15.13;100.00
42591;BME280;28218;53.342;-6.216;2022-09-14T09:18:00;100700.72;;;15.18;100.00
42591;BME280;28218;53.342;-6.216;2022-09-14T09:20:31;100710.72;;;15.23;100.00
42591;BME280;28218;53.342;-6.216;2022-09-14T09:23:06;100710.78;;;15.29;100.00
42591;BME280;28218;53.342;-6.216;2022-09-14T09:25:47;100713.06;;;15.39;100.00
42591;BME280;28218;53.342;-6.216;2022-09-14T09:28:19;100714.28;;;15.43;100.00
42591;BME280;28218;53.342;-6.216;2022-09-14T09:30:49;100720.03;;;15.53;100.00
42591;BME280;28218;53.342;-6.216;2022-09-14T09:33:20;100716.34;;;15.61;100.00
42591;BME280;28218;53.342;-6.216;2022-09-14T09:35:51;100717.44;;;15.67;100.00
42591;BME280;28218;53.342;-6.216;2022-09-14T09:38:22;100720.91;;;15.67;100.00
42591;BME280;28218;53.342;-6.216;2022-09-14T09:40:53;100731.53;;;15.67;100.00
42591;BME280;28218;53.342;-6.216;2022-09-14T09:43:22;100728.88;;;15.67;100.00
42591;BME280;28218;53.342;-6.216;2022-09-14T09:46:10;100727.44;;;15.71;100.00
42591;BME280;28218;53.342;-6.216;2022-09-14T09:48:40;100738.47;;;15.75;100.00
42591;BME280;28218;53.342;-6.216;2022-09-14T09:51:13;100732.97;;;15.70;100.00
42591;BME280;28218;53.342;-6.216;2022-09-14T09:53:50;100737.28;;;15.77;100.00
42591;BME280;28218;53.342;-6.216;2022-09-14T09:56:22;100739.34;;;15.82;100.00
42591;BME280;28218;53.342;-6.216;2022-09-14T09:58:50;100745.25;;;15.84;100.00
42591;BME280;28218;53.342;-6.216;2022-09-14T10:01:21;100744.25;;;15.92;100.00
42591;BME280;28218;53.342;-6.216;2022-09-14T10:04:00;100739.75;;;15.92;100.00
42591;BME280;28218;53.342;-6.216;2022-09-14T10:06:31;100749.13;;;15.88;100.00
42591;BME280;28218;53.342;-6.216;2022-09-14T10:08:59;100762.63;;;15.87;100.00
42591;BME280;28218;53.342;-6.216;2022-09-14T10:11:30;100772.84;;;15.76;100.00
42591;BME280;28218;53.342;-6.216;2022-09-14T10:13:59;100775.47;;;15.70;100.00
42591;BME280;28218;53.342;-6.216;2022-09-14T10:16:35;100770.16;;;15.70;100.00
42591;BME280;28218;53.342;-6.216;2022-09-14T10:19:12;100778.38;;;15.81;100.00
42591;BME280;28218;53.342;-6.216;2022-09-14T10:22:02;100784.94;;;15.92;100.00
42591;BME280;28218;53.342;-6.216;2022-09-14T10:24:32;100780.00;;;15.89;100.00
42591;BME280;28218;53.342;-6.216;2022-09-14T10:27:01;100784.06;;;15.85;100.00
42591;BME280;28218;53.342;-6.216;2022-09-14T10:29:35;100785.69;;;15.79;100.00
42591;BME280;28218;53.342;-6.216;2022-09-14T10:32:13;100794.69;;;15.78;100.00
42591;BME280;28218;53.342;-6.216;2022-09-14T10:34:44;100798.59;;;15.82;100.00
42591;BME280;28218;53.342;-6.216;2022-09-14T10:37:22;100795.94;;;15.82;100.00
42591;BME280;28218;53.342;-6.216;2022-09-14T10:40:04;100804.94;;;15.81;100.00
42591;BME280;28218;53.342;-6.216;2022-09-14T10:42:40;100803.53;;;15.86;100.00
42591;BME280;28218;53.342;-6.216;2022-09-14T10:45:17;100806.34;;;15.84;100.00
42591;BME280;28218;53.342;-6.216;2022-09-14T10:47:59;100806.78;;;15.88;100.00
42591;BME280;28218;53.342;-6.216;2022-09-14T10:50:40;100803.13;;;15.95;100.00
42591;BME280;28218;53.342;-6.216;2022-09-14T10:53:19;100804.13;;;15.94;100.00
42591;BME280;28218;53.342;-6.216;2022-09-14T10:55:57;100809.44;;;15.94;100.00
42591;BME280;28218;53.342;-6.216;2022-09-14T10:58:57;100811.91;;;15.96;100.00
42591;BME280;28218;53.342;-6.216;2022-09-14T11:01:39;100827.44;;;15.99;100.00
42591;BME280;28218;53.342;-6.216;2022-09-14T11:04:26;100820.09;;;16.07;100.00
42591;BME280;28218;53.342;-6.216;2022-09-14T11:07:03;100817.47;;;16.14;100.00
42591;BME280;28218;53.342;-6.216;2022-09-14T11:09:38;100815.22;;;16.18;100.00
42591;BME280;28218;53.342;-6.216;2022-09-14T11:12:16;100821.56;;;16.17;100.00
42591;BME280;28218;53.342;-6.216;2022-09-14T11:15:00;100820.53;;;16.18;100.00
42591;BME280;28218;53.342;-6.216;2022-09-14T11:17:44;100828.13;;;16.14;100.00
42591;BME280;28218;53.342;-6.216;2022-09-14T11:20:25;100840.34;;;16.08;100.00
42591;BME280;28218;53.342;-6.216;2022-09-14T11:23:05;100839.75;;;16.06;100.00
42591;BME280;28218;53.342;-6.216;2022-09-14T11:25:44;100842.78;;;16.03;100.00
42591;BME280;28218;53.342;-6.216;2022-09-14T11:28:17;100850.59;;;16.05;100.00
42591;BME280;28218;53.342;-6.216;2022-09-14T11:30:51;100845.44;;;16.03;100.00
42591;BME280;28218;53.342;-6.216;2022-09-14T11:33:27;100846.69;;;16.01;100.00
42591;BME280;28218;53.342;-6.216;2022-09-14T11:36:01;100844.84;;;16.01;100.00
42591;BME280;28218;53.342;-6.216;2022-09-14T11:38:34;100846.03;;;15.99;100.00
42591;BME280;28218;53.342;-6.216;2022-09-14T11:41:10;100850.53;;;15.98;100.00
42591;BME280;28218;53.342;-6.216;2022-09-14T11:43:44;100864.47;;;16.00;100.00
42591;BME280;28218;53.342;-6.216;2022-09-14T11:46:17;100861.59;;;16.02;100.00
42591;BME280;28218;53.342;-6.216;2022-09-14T11:48:51;100864.47;;;16.07;100.00
42591;BME280;28218;53.342;-6.216;2022-09-14T11:51:23;100867.56;;;16.10;100.00
42591;BME280;28218;53.342;-6.216;2022-09-14T11:53:54;100870.81;;;16.13;100.00
42591;BME280;28218;53.342;-6.216;2022-09-14T11:56:25;100880.44;;;16.14;100.00
42591;BME280;28218;53.342;-6.216;2022-09-14T11:58:55;100880.44;;;16.14;100.00
42591;BME280;28218;53.342;-6.216;2022-09-14T12:01:28;100879.84;;;16.18;100.00
42591;BME280;28218;53.342;-6.216;2022-09-14T12:04:09;100887.81;;;16.12;100.00
42591;BME280;28218;53.342;-6.216;2022-09-14T12:09:47;100897.63;;;16.11;100.00
42591;BME280;28218;53.342;-6.216;2022-09-14T12:12:36;100900.69;;;16.15;100.00
42591;BME280;28218;53.342;-6.216;2022-09-14T12:15:17;100902.94;;;16.18;100.00
42591;BME280;28218;53.342;-6.216;2022-09-14T12:17:48;100899.50;;;16.24;100.00
42591;BME280;28218;53.342;-6.216;2022-09-14T12:20:47;100913.59;;;16.24;100.00
42591;BME280;28218;53.342;-6.216;2022-09-14T12:23:24;100914.03;;;16.28;100.00
42591;BME280;28218;53.342;-6.216;2022-09-14T12:29:28;100926.69;;;16.32;100.00
42591;BME280;28218;53.342;-6.216;2022-09-14T12:38:38;100927.38;;;16.54;100.00
42591;BME280;28218;53.342;-6.216;2022-09-14T12:44:34;100946.63;;;16.70;100.00
42591;BME280;28218;53.342;-6.216;2022-09-14T12:47:38;100954.84;;;16.75;100.00
42591;BME280;28218;53.342;-6.216;2022-09-14T12:50:14;100944.19;;;16.75;100.00
42591;BME280;28218;53.342;-6.216;2022-09-14T12:52:50;100953.03;;;16.75;100.00
42591;BME280;28218;53.342;-6.216;2022-09-14T12:55:55;100964.50;;;16.76;100.00
42591;BME280;28218;53.342;-6.216;2022-09-14T12:58:56;100965.50;;;16.75;100.00
42591;BME280;28218;53.342;-6.216;2022-09-14T13:01:34;100971.44;;;16.77;100.00
42591;BME280;28218;53.342;-6.216;2022-09-14T13:04:04;100963.47;;;16.77;100.00
42591;BME280;28218;53.342;-6.216;2022-09-14T13:06:41;100969.19;;;16.74;100.00
42591;BME280;28218;53.342;-6.216;2022-09-14T13:09:16;100977.56;;;16.71;100.00
42591;BME280;28218;53.342;-6.216;2022-09-14T13:11:48;100972.63;;;16.68;100.00
42591;BME280;28218;53.342;-6.216;2022-09-14T13:14:22;100987.38;;;16.70;100.00
42591;BME280;28218;53.342;-6.216;2022-09-14T13:16:53;100990.47;;;16.74;100.00